Station Historical Data
Daily Summary for February 7, 2017 Units:  Metric    English   Both
« Previous Day
Next Day »
Daily Weekly Monthly Yearly Custom
  High: Low: Average:
Temperature: 11.1 °C 6 °C 9.9 °C
Dew Point: 10.8 °C 5.3 °C 9.4 °C
Humidity: 98 % 95 % 97 %
Wind Speed: 46.7 km/h 0 km/h 16.1 km/h
Wind Gust: 69.2 km/h - -
Wind:- - South
Pressure: 1020.5 hPa 1007.3 hPa -
Precipitation: 0.25 mm    
Historical Graphs
 
 
Tabular Data for February 7, 2017
Time Temperature Dew Point Pressure Wind Wind Speed Wind Gust Humidity Rainfall Rate (Hourly) solar
00:01 6.1 °C 5.4 °C 1012.1 hPa SSE 14.5 km/h 19.3 km/h 95 % 1.27 mm 0.00 W/m2
00:06 6.1 °C 5.3 °C 1012.1 hPa South 16.1 km/h 22.5 km/h 95 % 1.27 mm 0.00 W/m2
00:11 6.1 °C 5.3 °C 1012.1 hPa SE 17.7 km/h 32.2 km/h 95 % 1.02 mm 0.00 W/m2
00:16 6 °C 5.3 °C 1011.7 hPa SSE 22.5 km/h 33.8 km/h 95 % 1.02 mm 0.00 W/m2
00:21 6 °C 5.3 °C 1011.7 hPa South 25.7 km/h 25.7 km/h 95 % 1.52 mm 0.00 W/m2
00:26 6 °C 5.3 °C 1011.7 hPa SSE 32.2 km/h 32.2 km/h 95 % 1.52 mm 0.00 W/m2
00:31 6 °C 5.3 °C 1011.7 hPa South 27.4 km/h 33.8 km/h 95 % 1.27 mm 0.00 W/m2
00:36 6 °C 5.3 °C 1011.7 hPa SE 17.7 km/h 40.2 km/h 95 % 1.27 mm 0.00 W/m2
00:41 6.1 °C 5.3 °C 1011.7 hPa SE 24.1 km/h 33.8 km/h 95 % 1.27 mm 0.00 W/m2
00:46 6.1 °C 5.3 °C 1011.7 hPa South 33.8 km/h 40.2 km/h 95 % 1.78 mm 0.00 W/m2
00:51 6.1 °C 5.4 °C 1011.7 hPa South 32.2 km/h 32.2 km/h 95 % 3.3 mm 0.00 W/m2
00:56 6.2 °C 5.4 °C 1011.4 hPa South 25.7 km/h 41.8 km/h 95 % 3.05 mm 0.00 W/m2
01:02 6.2 °C 5.5 °C 1011.4 hPa SSE 20.9 km/h 29 km/h 95 % 2.29 mm 0.00 W/m2
01:07 6.3 °C 5.6 °C 1011.1 hPa SSE 30.6 km/h 33.8 km/h 95 % 2.29 mm 0.00 W/m2
01:12 6.3 °C 5.6 °C 1011.1 hPa SSE 20.9 km/h 45.1 km/h 95 % 1.78 mm 0.00 W/m2
01:17 6.4 °C 5.7 °C 1010.7 hPa SE 27.4 km/h 49.9 km/h 95 % 1.78 mm 0.00 W/m2
01:22 6.5 °C 5.8 °C 1010.7 hPa SSE 38.6 km/h 38.6 km/h 95 % 2.03 mm 0.00 W/m2
01:27 6.6 °C 5.8 °C 1010.7 hPa South 35.4 km/h 35.4 km/h 95 % 1.52 mm 0.00 W/m2
01:32 6.7 °C 5.9 °C 1010.7 hPa South 1.6 km/h 37 km/h 95 % 1.52 mm 0.00 W/m2
01:37 6.7 °C 5.9 °C 1010.7 hPa South 19.3 km/h 33.8 km/h 95 % 1.78 mm 0.00 W/m2
01:42 6.7 °C 6 °C 1010.7 hPa SSE 25.7 km/h 30.6 km/h 95 % 1.78 mm 0.00 W/m2
01:47 6.8 °C 6.1 °C 1010.7 hPa South 17.7 km/h 30.6 km/h 95 % 1.78 mm 0.00 W/m2
01:52 6.9 °C 6.2 °C 1010.4 hPa South 16.1 km/h 38.6 km/h 95 % 2.03 mm 0.00 W/m2
01:57 6.9 °C 6.2 °C 1010.4 hPa South 32.2 km/h 41.8 km/h 95 % 2.03 mm 0.00 W/m2
02:02 7.1 °C 6.3 °C 1010.4 hPa SSE 20.9 km/h 38.6 km/h 95 % 2.03 mm 0.00 W/m2
02:07 7.1 °C 6.4 °C 1010.4 hPa South 19.3 km/h 43.5 km/h 95 % 2.54 mm 0.00 W/m2
02:12 7.2 °C 6.4 °C 1010 hPa SSW 25.7 km/h 29 km/h 95 % 2.54 mm 0.00 W/m2
02:17 7.2 °C 6.5 °C 1010 hPa SSE 25.7 km/h 38.6 km/h 95 % 3.3 mm 0.00 W/m2
02:22 7.3 °C 6.6 °C 1010 hPa South 22.5 km/h 33.8 km/h 95 % 2.03 mm 0.00 W/m2
02:27 7.4 °C 6.7 °C 1010 hPa SSE 12.9 km/h 32.2 km/h 95 % 1.27 mm 0.00 W/m2
02:32 7.5 °C 6.8 °C 1009.7 hPa SSE 30.6 km/h 38.6 km/h 95 % 3.3 mm 0.00 W/m2
02:37 7.6 °C 6.8 °C 1010 hPa South 32.2 km/h 38.6 km/h 95 % 3.81 mm 0.00 W/m2
02:42 7.7 °C 6.9 °C 1009.7 hPa SW 17.7 km/h 43.5 km/h 95 % 4.32 mm 0.00 W/m2
02:47 7.8 °C 7.2 °C 1009.7 hPa SSW 12.9 km/h 41.8 km/h 96 % 3.05 mm 0.00 W/m2
02:52 7.9 °C 7.3 °C 1009.7 hPa South 11.3 km/h 32.2 km/h 96 % 3.3 mm 0.00 W/m2
02:57 7.9 °C 7.3 °C 1009.4 hPa SSE 41.8 km/h 43.5 km/h 96 % 2.29 mm 0.00 W/m2
03:02 8.1 °C 7.4 °C 1009 hPa SSW 24.1 km/h 43.5 km/h 96 % 3.3 mm 0.00 W/m2
03:07 8.1 °C 7.5 °C 1009.4 hPa South 33.8 km/h 54.7 km/h 96 % 2.54 mm 0.00 W/m2
03:12 8.2 °C 7.6 °C 1008.7 hPa South 25.7 km/h 41.8 km/h 96 % 1.52 mm 0.00 W/m2
03:17 8.3 °C 7.7 °C 1009 hPa South 40.2 km/h 48.3 km/h 96 % 1.02 mm 0.00 W/m2
03:22 8.5 °C 7.9 °C 1008.7 hPa South 29 km/h 43.5 km/h 96 % 0 mm 0.00 W/m2
03:27 8.6 °C 8 °C 1009 hPa SSW 43.5 km/h 43.5 km/h 96 % 0 mm 0.00 W/m2
03:32 8.7 °C 8.1 °C 1008.7 hPa SSE 35.4 km/h 48.3 km/h 96 % 0 mm 0.00 W/m2
03:37 8.8 °C 8.2 °C 1009 hPa SSW 41.8 km/h 46.7 km/h 96 % 0 mm 0.00 W/m2
03:42 8.8 °C 8.2 °C 1009 hPa SSE 22.5 km/h 69.2 km/h 96 % 0 mm 0.00 W/m2
03:47 8.9 °C 8.3 °C 1009.4 hPa SSW 40.2 km/h 48.3 km/h 96 % 0 mm 0.00 W/m2
03:52 8.9 °C 8.3 °C 1009 hPa SSW 46.7 km/h 46.7 km/h 96 % 0 mm 0.00 W/m2
03:57 8.9 °C 8.3 °C 1008.7 hPa South 37 km/h 54.7 km/h 96 % 0 mm 0.00 W/m2
04:02 8.9 °C 8.3 °C 1008.4 hPa SSW 38.6 km/h 48.3 km/h 96 % 0 mm 0.00 W/m2
04:07 8.9 °C 8.3 °C 1008.4 hPa SW 11.3 km/h 46.7 km/h 96 % 0 mm 0.00 W/m2
04:12 8.9 °C 8.3 °C 1008.4 hPa SSW 11.3 km/h 51.5 km/h 96 % 0 mm 0.00 W/m2
04:17 9 °C 8.4 °C 1008.4 hPa SSW 43.5 km/h 57.9 km/h 96 % 0 mm 0.00 W/m2
04:22 9.1 °C 8.4 °C 1008.4 hPa South 30.6 km/h 32.2 km/h 96 % 0 mm 0.00 W/m2
04:27 9.1 °C 8.4 °C 1008.4 hPa SSW 14.5 km/h 37 km/h 96 % 1.27 mm 0.00 W/m2
04:32 9.1 °C 8.4 °C 1008 hPa SSE 30.6 km/h 45.1 km/h 96 % 1.27 mm 0.00 W/m2
04:37 9.1 °C 8.4 °C 1008 hPa South 30.6 km/h 48.3 km/h 96 % 2.03 mm 0.00 W/m2
04:42 9.1 °C 8.4 °C 1008 hPa South 19.3 km/h 33.8 km/h 96 % 2.03 mm 0.00 W/m2
04:47 9.1 °C 8.5 °C 1008 hPa SE 33.8 km/h 56.3 km/h 96 % 1.27 mm 0.00 W/m2
04:52 9.1 °C 8.5 °C 1007.7 hPa South 37 km/h 43.5 km/h 96 % 1.27 mm 0.00 W/m2
04:57 9.1 °C 8.5 °C 1008 hPa WSW 27.4 km/h 35.4 km/h 96 % 1.52 mm 0.00 W/m2
05:02 9.2 °C 8.6 °C 1008.4 hPa South 22.5 km/h 41.8 km/h 96 % 7.87 mm 0.00 W/m2
05:07 9.2 °C 8.6 °C 1008 hPa South 22.5 km/h 45.1 km/h 96 % 5.33 mm 0.00 W/m2
05:12 9.3 °C 8.7 °C 1008.4 hPa SSW 22.5 km/h 64.4 km/h 96 % 3.3 mm 0.00 W/m2
05:18 9.3 °C 8.7 °C 1008.7 hPa SSW 20.9 km/h 33.8 km/h 96 % 2.03 mm 0.00 W/m2
05:23 9.4 °C 8.8 °C 1008.7 hPa South 16.1 km/h 56.3 km/h 96 % 3.05 mm 0.00 W/m2
05:28 9.4 °C 8.8 °C 1008.7 hPa South 38.6 km/h 49.9 km/h 96 % 4.32 mm 0.00 W/m2
05:33 9.4 °C 8.8 °C 1008 hPa South 38.6 km/h 40.2 km/h 96 % 7.11 mm 0.00 W/m2
05:38 9.5 °C 8.9 °C 1008 hPa South 40.2 km/h 40.2 km/h 96 % 5.59 mm 0.00 W/m2
05:43 9.5 °C 8.9 °C 1007.7 hPa South 22.5 km/h 38.6 km/h 96 % 5.59 mm 0.00 W/m2
05:48 9.5 °C 8.9 °C 1007.3 hPa SSE 16.1 km/h 27.4 km/h 96 % 6.86 mm 0.00 W/m2
05:53 9.6 °C 8.9 °C 1007.7 hPa SSE 16.1 km/h 41.8 km/h 96 % 11.68 mm 0.00 W/m2
05:58 9.6 °C 8.9 °C 1007.7 hPa SSE 17.7 km/h 53.1 km/h 96 % 7.62 mm 0.00 W/m2
06:03 9.6 °C 8.9 °C 1007.3 hPa SSW 16.1 km/h 64.4 km/h 96 % 5.08 mm 0.00 W/m2
06:08 9.6 °C 8.9 °C 1008 hPa SSW 20.9 km/h 48.3 km/h 96 % 5.08 mm 0.00 W/m2
06:13 9.6 °C 9 °C 1007.3 hPa SSE 17.7 km/h 40.2 km/h 96 % 14.99 mm 0.00 W/m2
06:18 9.6 °C 9 °C 1007.7 hPa SSE 11.3 km/h 43.5 km/h 96 % 7.11 mm 0.00 W/m2
06:23 9.7 °C 9.1 °C 1007.7 hPa SSW 43.5 km/h 54.7 km/h 96 % 12.95 mm 0.00 W/m2
06:28 9.7 °C 9.1 °C 1008 hPa SSE 20.9 km/h 37 km/h 96 % 13.72 mm 0.00 W/m2
06:33 9.8 °C 9.2 °C 1008 hPa SSE 29 km/h 37 km/h 96 % 10.41 mm 0.00 W/m2
06:38 9.8 °C 9.2 °C 1008.4 hPa WSW 3.2 km/h 48.3 km/h 96 % 6.1 mm 0.00 W/m2
06:43 9.8 °C 9.2 °C 1008.4 hPa South 25.7 km/h 35.4 km/h 96 % 3.81 mm 0.00 W/m2
06:48 9.9 °C 9.3 °C 1008.4 hPa SSE 27.4 km/h 41.8 km/h 96 % 3.56 mm 0.00 W/m2
06:53 9.9 °C 9.3 °C 1008.4 hPa SSW 33.8 km/h 48.3 km/h 96 % 4.57 mm 0.00 W/m2
06:58 9.9 °C 9.3 °C 1008.4 hPa South 38.6 km/h 45.1 km/h 96 % 6.35 mm 0.00 W/m2
07:03 10 °C 9.4 °C 1008.4 hPa SSW 46.7 km/h 49.9 km/h 96 % 5.08 mm 0.00 W/m2
07:08 10 °C 9.4 °C 1008.4 hPa South 43.5 km/h 45.1 km/h 96 % 3.81 mm 0.00 W/m2
07:13 10.1 °C 9.4 °C 1008.4 hPa SSE 43.5 km/h 51.5 km/h 96 % 2.29 mm 0.00 W/m2
07:18 10.1 °C 9.4 °C 1008.7 hPa South 19.3 km/h 51.5 km/h 96 % 2.54 mm 0.00 W/m2
07:23 10.1 °C 9.4 °C 1008.7 hPa SSW 32.2 km/h 45.1 km/h 96 % 6.86 mm 5.00 W/m2
07:28 10.1 °C 9.4 °C 1008.7 hPa SSW 32.2 km/h 46.7 km/h 96 % 2.29 mm 0.00 W/m2
07:33 10.1 °C 9.5 °C 1008.7 hPa South 30.6 km/h 48.3 km/h 96 % 2.03 mm 5.00 W/m2
07:38 10.1 °C 9.5 °C 1009 hPa SW 37 km/h 37 km/h 96 % 4.06 mm 5.00 W/m2
07:43 10.2 °C 9.6 °C 1009 hPa SSW 20.9 km/h 37 km/h 96 % 3.56 mm 7.00 W/m2
07:48 10.2 °C 9.6 °C 1009 hPa South 22.5 km/h 38.6 km/h 96 % 2.54 mm 7.00 W/m2
07:53 10.2 °C 9.6 °C 1009.4 hPa SSW 12.9 km/h 43.5 km/h 96 % 2.29 mm 11.00 W/m2
07:58 10.2 °C 9.6 °C 1009.4 hPa South 14.5 km/h 30.6 km/h 96 % 2.54 mm 9.00 W/m2
08:03 10.2 °C 9.6 °C 1009.4 hPa SSW 14.5 km/h 32.2 km/h 96 % 7.87 mm 12.00 W/m2
08:08 10.2 °C 9.6 °C 1009.7 hPa South 29 km/h 33.8 km/h 96 % 4.06 mm 14.00 W/m2
08:13 10.2 °C 9.6 °C 1009.4 hPa South 32.2 km/h 38.6 km/h 96 % 1.78 mm 16.00 W/m2
08:18 10.2 °C 9.6 °C 1009.7 hPa SSW 25.7 km/h 41.8 km/h 96 % 2.54 mm 12.00 W/m2
08:23 10.3 °C 9.7 °C 1010 hPa SSW 33.8 km/h 40.2 km/h 96 % 2.54 mm 12.00 W/m2
08:28 10.3 °C 9.7 °C 1010 hPa South 22.5 km/h 35.4 km/h 96 % 1.52 mm 12.00 W/m2
08:33 10.3 °C 9.7 °C 1010.4 hPa SSE 8 km/h 38.6 km/h 96 % 1.52 mm 18.00 W/m2
08:38 10.3 °C 9.7 °C 1010.4 hPa SSW 40.2 km/h 45.1 km/h 96 % 2.29 mm 21.00 W/m2
08:43 10.3 °C 9.7 °C 1010.7 hPa South 27.4 km/h 32.2 km/h 96 % 3.56 mm 16.00 W/m2
08:48 10.4 °C 9.8 °C 1010.7 hPa South 22.5 km/h 40.2 km/h 96 % 2.54 mm 26.00 W/m2
08:53 10.4 °C 9.8 °C 1010.7 hPa SSE 17.7 km/h 40.2 km/h 96 % 2.03 mm 28.00 W/m2
08:58 10.4 °C 9.8 °C 1011.1 hPa SSW 22.5 km/h 48.3 km/h 96 % 3.56 mm 30.00 W/m2
09:03 10.4 °C 9.8 °C 1011.1 hPa SW 25.7 km/h 32.2 km/h 96 % 3.56 mm 26.00 W/m2
09:08 10.5 °C 9.9 °C 1011.4 hPa SW 30.6 km/h 33.8 km/h 96 % 3.56 mm 44.00 W/m2
09:13 10.5 °C 9.9 °C 1011.4 hPa SSW 4.8 km/h 38.6 km/h 96 % 3.56 mm 25.00 W/m2
09:18 10.5 °C 9.9 °C 1011.4 hPa South 19.3 km/h 35.4 km/h 96 % 4.06 mm 35.00 W/m2
09:23 10.5 °C 9.9 °C 1011.7 hPa SSW 24.1 km/h 38.6 km/h 96 % 3.3 mm 42.00 W/m2
09:28 10.6 °C 9.9 °C 1011.7 hPa SSW 9.7 km/h 35.4 km/h 96 % 2.29 mm 26.00 W/m2
09:33 10.5 °C 9.9 °C 1011.7 hPa SSW 8 km/h 30.6 km/h 96 % 2.29 mm 30.00 W/m2
09:38 10.5 °C 9.9 °C 1012.1 hPa SSW 16.1 km/h 35.4 km/h 96 % 2.29 mm 37.00 W/m2
09:43 10.5 °C 9.9 °C 1012.1 hPa WSW 17.7 km/h 30.6 km/h 96 % 2.29 mm 49.00 W/m2
09:48 10.5 °C 9.9 °C 1012.4 hPa SW 8 km/h 32.2 km/h 96 % 2.29 mm 44.00 W/m2
09:53 10.5 °C 9.9 °C 1012.4 hPa SSW 4.8 km/h 29 km/h 96 % 2.03 mm 54.00 W/m2
09:58 10.5 °C 9.9 °C 1012.4 hPa SE 9.7 km/h 27.4 km/h 96 % 1.78 mm 40.00 W/m2
10:03 10.5 °C 9.9 °C 1012.8 hPa South 17.7 km/h 29 km/h 96 % 1.78 mm 54.00 W/m2
10:08 10.6 °C 9.9 °C 1012.8 hPa SSW 8 km/h 32.2 km/h 96 % 1.52 mm 60.00 W/m2
10:13 10.6 °C 10 °C 1013.1 hPa South 17.7 km/h 22.5 km/h 96 % 1.02 mm 44.00 W/m2
10:18 10.7 °C 10.1 °C 1013.1 hPa SSW 16.1 km/h 32.2 km/h 96 % 0 mm 58.00 W/m2
10:23 10.7 °C 10.1 °C 1013.1 hPa SSW 6.4 km/h 38.6 km/h 96 % 0 mm 42.00 W/m2
10:28 10.7 °C 10.1 °C 1013.1 hPa SSE 9.7 km/h 19.3 km/h 96 % 0 mm 42.00 W/m2
10:33 10.7 °C 10.1 °C 1013.1 hPa South 19.3 km/h 33.8 km/h 96 % 1.27 mm 44.00 W/m2
10:38 10.7 °C 10.2 °C 1013.4 hPa SSE 6.4 km/h 35.4 km/h 97 % 1.27 mm 42.00 W/m2
10:43 10.7 °C 10.3 °C 1013.4 hPa SSW 19.3 km/h 29 km/h 97 % 1.27 mm 56.00 W/m2
10:48 10.8 °C 10.3 °C 1013.4 hPa SSW 25.7 km/h 30.6 km/h 97 % 0 mm 62.00 W/m2
10:53 10.8 °C 10.3 °C 1013.4 hPa SW 24.1 km/h 29 km/h 97 % 0 mm 60.00 W/m2
10:58 10.8 °C 10.4 °C 1013.8 hPa SSE 24.1 km/h 35.4 km/h 97 % 0 mm 72.00 W/m2
11:03 10.8 °C 10.4 °C 1013.8 hPa WSW 25.7 km/h 33.8 km/h 97 % 0 mm 67.00 W/m2
11:08 10.9 °C 10.4 °C 1013.8 hPa South 8 km/h 33.8 km/h 97 % 0 mm 62.00 W/m2
11:13 10.9 °C 10.4 °C 1013.8 hPa SSW 6.4 km/h 22.5 km/h 97 % 0 mm 51.00 W/m2
11:18 10.9 °C 10.5 °C 1013.8 hPa SSW 14.5 km/h 27.4 km/h 97 % 0 mm 60.00 W/m2
11:23 10.9 °C 10.5 °C 1013.8 hPa SSW 19.3 km/h 22.5 km/h 97 % 0 mm 77.00 W/m2
11:28 11 °C 10.6 °C 1013.8 hPa South 6.4 km/h 32.2 km/h 97 % 0 mm 77.00 W/m2
11:33 11 °C 10.6 °C 1014.1 hPa SSE 12.9 km/h 25.7 km/h 97 % 0 mm 90.00 W/m2
11:38 11.1 °C 10.6 °C 1013.8 hPa SSE 12.9 km/h 29 km/h 97 % 0 mm 62.00 W/m2
11:43 11 °C 10.6 °C 1013.8 hPa South 6.4 km/h 29 km/h 97 % 0 mm 69.00 W/m2
11:48 11.1 °C 10.6 °C 1014.1 hPa South 14.5 km/h 29 km/h 97 % 0 mm 74.00 W/m2
11:53 11.1 °C 10.6 °C 1014.1 hPa WSW 8 km/h 29 km/h 97 % 0 mm 70.00 W/m2
11:58 11.1 °C 10.6 °C 1014.1 hPa SSW 14.5 km/h 27.4 km/h 97 % 0 mm 56.00 W/m2
12:03 11.1 °C 10.6 °C 1014.1 hPa South 12.9 km/h 24.1 km/h 97 % 0 mm 54.00 W/m2
12:08 11.1 °C 10.7 °C 1014.1 hPa SW 12.9 km/h 29 km/h 97 % 0 mm 42.00 W/m2
12:13 11.1 °C 10.6 °C 1014.4 hPa SSW 19.3 km/h 33.8 km/h 97 % 0 mm 37.00 W/m2
12:18 11.1 °C 10.7 °C 1014.4 hPa SW 6.4 km/h 29 km/h 97 % 0 mm 53.00 W/m2
12:24 11.1 °C 10.7 °C 1014.4 hPa Calm   25.7 km/h 97 % 0 mm 86.00 W/m2
12:28 11.1 °C 10.6 °C 1014.4 hPa SW 9.7 km/h 25.7 km/h 97 % 0 mm 69.00 W/m2
12:33 11.1 °C 10.7 °C 1014.4 hPa SSW 8 km/h 33.8 km/h 97 % 0 mm 56.00 W/m2
12:38 11.1 °C 10.7 °C 1014.8 hPa SSW 33.8 km/h 37 km/h 97 % 0 mm 47.00 W/m2
12:43 11.1 °C 10.7 °C 1014.8 hPa South 12.9 km/h 37 km/h 97 % 0 mm 40.00 W/m2
12:48 11.1 °C 10.7 °C 1014.8 hPa SW 16.1 km/h 32.2 km/h 97 % 0 mm 40.00 W/m2
12:53 11.1 °C 10.6 °C 1014.8 hPa SSE 12.9 km/h 27.4 km/h 97 % 0 mm 54.00 W/m2
12:58 11.1 °C 10.6 °C 1014.8 hPa SSW 12.9 km/h 29 km/h 97 % 0 mm 44.00 W/m2
13:03 11.1 °C 10.6 °C 1014.8 hPa SE 11.3 km/h 32.2 km/h 97 % 0 mm 51.00 W/m2
13:08 11.1 °C 10.6 °C 1014.8 hPa South 19.3 km/h 32.2 km/h 97 % 0 mm 35.00 W/m2
13:13 11 °C 10.6 °C 1014.8 hPa SW 17.7 km/h 33.8 km/h 97 % 0 mm 42.00 W/m2
13:18 11 °C 10.4 °C 1014.8 hPa South 17.7 km/h 25.7 km/h 96 % 0 mm 37.00 W/m2
13:23 10.9 °C 10.3 °C 1014.8 hPa SW 9.7 km/h 29 km/h 96 % 0 mm 51.00 W/m2
13:28 10.9 °C 10.3 °C 1015.1 hPa South 4.8 km/h 25.7 km/h 96 % 0 mm 47.00 W/m2
13:33 10.9 °C 10.3 °C 1015.1 hPa SW 14.5 km/h 19.3 km/h 96 % 0 mm 53.00 W/m2
13:38 10.9 °C 10.3 °C 1015.1 hPa South 19.3 km/h 24.1 km/h 96 % 0 mm 51.00 W/m2
13:43 10.9 °C 10.3 °C 1015.1 hPa South 16.1 km/h 24.1 km/h 96 % 0 mm 58.00 W/m2
13:48 10.9 °C 10.3 °C 1015.1 hPa South 6.4 km/h 16.1 km/h 96 % 0 mm 54.00 W/m2
13:53 10.9 °C 10.4 °C 1015.1 hPa South 14.5 km/h 24.1 km/h 97 % 0 mm 62.00 W/m2
13:58 10.9 °C 10.4 °C 1015.1 hPa South 9.7 km/h 25.7 km/h 97 % 0 mm 49.00 W/m2
14:03 10.9 °C 10.4 °C 1015.5 hPa South 8 km/h 25.7 km/h 97 % 0 mm 42.00 W/m2
14:08 10.9 °C 10.4 °C 1015.5 hPa SSE 14.5 km/h 20.9 km/h 97 % 0 mm 49.00 W/m2
14:13 10.9 °C 10.5 °C 1015.5 hPa SSE 16.1 km/h 20.9 km/h 97 % 0 mm 69.00 W/m2
14:18 10.9 °C 10.4 °C 1015.5 hPa South 6.4 km/h 17.7 km/h 97 % 0 mm 42.00 W/m2
14:23 10.9 °C 10.4 °C 1015.1 hPa South 25.7 km/h 29 km/h 97 % 0 mm 58.00 W/m2
14:28 10.9 °C 10.4 °C 1015.1 hPa SSE 9.7 km/h 30.6 km/h 97 % 0 mm 65.00 W/m2
14:33 10.9 °C 10.4 °C 1015.1 hPa South 14.5 km/h 16.1 km/h 97 % 0 mm 49.00 W/m2
14:38 10.9 °C 10.4 °C 1015.1 hPa SSW 12.9 km/h 29 km/h 97 % 0 mm 65.00 W/m2
14:43 10.9 °C 10.4 °C 1015.5 hPa SSE 12.9 km/h 17.7 km/h 97 % 0 mm 69.00 W/m2
14:48 10.9 °C 10.4 °C 1015.5 hPa SW 11.3 km/h 20.9 km/h 97 % 0 mm 69.00 W/m2
14:53 10.9 °C 10.4 °C 1015.5 hPa SSW 11.3 km/h 22.5 km/h 97 % 0 mm 49.00 W/m2
14:58 10.9 °C 10.4 °C 1015.8 hPa South 16.1 km/h 17.7 km/h 97 % 0 mm 44.00 W/m2
15:03 10.8 °C 10.4 °C 1015.5 hPa SSW 4.8 km/h 33.8 km/h 97 % 0 mm 35.00 W/m2
15:08 10.8 °C 10.4 °C 1015.5 hPa SSE 9.7 km/h 20.9 km/h 97 % 0 mm 30.00 W/m2
15:13 10.8 °C 10.4 °C 1015.8 hPa South 11.3 km/h 20.9 km/h 97 % 0 mm 35.00 W/m2
15:18 10.8 °C 10.4 °C 1015.8 hPa South 14.5 km/h 24.1 km/h 97 % 0 mm 58.00 W/m2
15:23 10.8 °C 10.4 °C 1016.1 hPa SSE 11.3 km/h 22.5 km/h 97 % 0 mm 33.00 W/m2
15:28 10.8 °C 10.3 °C 1016.5 hPa SSE 12.9 km/h 24.1 km/h 97 % 0 mm 67.00 W/m2
15:33 10.8 °C 10.3 °C 1016.5 hPa South 12.9 km/h 24.1 km/h 97 % 0 mm 35.00 W/m2
15:38 10.8 °C 10.3 °C 1016.5 hPa SSE 20.9 km/h 22.5 km/h 97 % 0 mm 32.00 W/m2
15:43 10.8 °C 10.3 °C 1016.5 hPa South 12.9 km/h 16.1 km/h 97 % 0 mm 28.00 W/m2
15:48 10.8 °C 10.3 °C 1016.5 hPa SSW 6.4 km/h 19.3 km/h 97 % 0 mm 28.00 W/m2
15:53 10.8 °C 10.3 °C 1016.8 hPa South 12.9 km/h 24.1 km/h 97 % 0 mm 30.00 W/m2
15:59 10.8 °C 10.3 °C 1016.8 hPa Calm   11.3 km/h 97 % 0 mm 14.00 W/m2
16:04 10.7 °C 10.3 °C 1016.8 hPa SSE 12.9 km/h 17.7 km/h 97 % 0 mm 35.00 W/m2
16:09 10.7 °C 10.3 °C 1016.5 hPa SSE 14.5 km/h 16.1 km/h 97 % 0 mm 37.00 W/m2
16:14 10.7 °C 10.3 °C 1016.5 hPa SSE 12.9 km/h 17.7 km/h 97 % 0 mm 46.00 W/m2
16:19 10.8 °C 10.3 °C 1016.8 hPa South 9.7 km/h 12.9 km/h 97 % 0 mm 19.00 W/m2
16:24 10.8 °C 10.3 °C 1017.2 hPa Calm   14.5 km/h 97 % 0 mm 14.00 W/m2
16:29 10.7 °C 10.3 °C 1016.8 hPa South 12.9 km/h 30.6 km/h 97 % 0 mm 26.00 W/m2
16:34 10.7 °C 10.3 °C 1016.8 hPa South 6.4 km/h 25.7 km/h 97 % 0 mm 14.00 W/m2
16:39 10.7 °C 10.3 °C 1016.8 hPa South 11.3 km/h 20.9 km/h 97 % 0 mm 12.00 W/m2
16:44 10.7 °C 10.3 °C 1017.2 hPa South 11.3 km/h 22.5 km/h 97 % 0 mm 12.00 W/m2
16:49 10.7 °C 10.3 °C 1017.2 hPa Calm   14.5 km/h 97 % 0 mm 9.00 W/m2
16:54 10.7 °C 10.3 °C 1017.2 hPa South 14.5 km/h 17.7 km/h 97 % 0 mm 11.00 W/m2
16:59 10.7 °C 10.3 °C 1017.2 hPa SSE 9.7 km/h 17.7 km/h 97 % 0 mm 7.00 W/m2
17:04 10.7 °C 10.3 °C 1017.2 hPa SSE 9.7 km/h 17.7 km/h 97 % 0 mm 9.00 W/m2
17:09 10.7 °C 10.3 °C 1017.2 hPa SSE 3.2 km/h 12.9 km/h 97 % 0 mm 5.00 W/m2
17:14 10.7 °C 10.3 °C 1017.5 hPa SSE 14.5 km/h 20.9 km/h 97 % 0 mm 5.00 W/m2
17:19 10.8 °C 10.3 °C 1017.5 hPa South 8 km/h 16.1 km/h 97 % 0 mm 0.00 W/m2
17:24 10.8 °C 10.3 °C 1017.5 hPa SSE 11.3 km/h 16.1 km/h 97 % 0 mm 0.00 W/m2
17:29 10.8 °C 10.3 °C 1017.8 hPa SSE 16.1 km/h 17.7 km/h 97 % 0 mm 0.00 W/m2
17:34 10.8 °C 10.3 °C 1017.8 hPa SE 22.5 km/h 24.1 km/h 97 % 0 mm 0.00 W/m2
17:39 10.7 °C 10.3 °C 1017.8 hPa SSE 14.5 km/h 29 km/h 97 % 0 mm 0.00 W/m2
17:44 10.7 °C 10.3 °C 1017.8 hPa SE 8 km/h 20.9 km/h 97 % 0 mm 0.00 W/m2
17:49 10.7 °C 10.3 °C 1017.8 hPa Calm   17.7 km/h 97 % 0 mm 0.00 W/m2
17:54 10.7 °C 10.3 °C 1017.8 hPa SE 11.3 km/h 20.9 km/h 97 % 0 mm 0.00 W/m2
17:59 10.7 °C 10.3 °C 1018.2 hPa SSE 12.9 km/h 24.1 km/h 97 % 0 mm 0.00 W/m2
18:04 10.7 °C 10.2 °C 1018.2 hPa SSW 14.5 km/h 22.5 km/h 97 % 0 mm 0.00 W/m2
18:09 10.7 °C 10.3 °C 1018.5 hPa SSE 6.4 km/h 19.3 km/h 97 % 0 mm 0.00 W/m2
18:14 10.7 °C 10.2 °C 1018.5 hPa SSE 1.6 km/h 17.7 km/h 97 % 0 mm 0.00 W/m2
18:18 10.7 °C 10.2 °C 1018.5 hPa SSE 6.4 km/h 11.3 km/h 97 % 0 mm 0.00 W/m2
18:23 10.7 °C 10.2 °C 1018.5 hPa SE 9.7 km/h 12.9 km/h 97 % 0 mm 0.00 W/m2
18:29 10.7 °C 10.2 °C 1018.5 hPa SE 9.7 km/h 19.3 km/h 97 % 0 mm 0.00 W/m2
18:34 10.6 °C 10 °C 1018.5 hPa SE 9.7 km/h 14.5 km/h 96 % 0 mm 0.00 W/m2
18:38 10.6 °C 9.9 °C 1018.5 hPa SE 6.4 km/h 17.7 km/h 96 % 0 mm 0.00 W/m2
18:43 10.6 °C 9.9 °C 1018.5 hPa SE 6.4 km/h 12.9 km/h 96 % 0 mm 0.00 W/m2
18:49 10.5 °C 9.9 °C 1018.5 hPa SE 14.5 km/h 14.5 km/h 96 % 0 mm 0.00 W/m2
18:54 10.5 °C 9.9 °C 1018.8 hPa SE 9.7 km/h 16.1 km/h 96 % 0 mm 0.00 W/m2
18:59 10.4 °C 10 °C 1018.5 hPa SSE 8 km/h 16.1 km/h 97 % 0 mm 0.00 W/m2
19:04 10.4 °C 9.9 °C 1018.5 hPa SSE 11.3 km/h 14.5 km/h 97 % 0 mm 0.00 W/m2
19:09 10.4 °C 9.9 °C 1018.5 hPa SSE 16.1 km/h 22.5 km/h 97 % 0 mm 0.00 W/m2
19:14 10.4 °C 9.9 °C 1018.5 hPa SE 9.7 km/h 17.7 km/h 97 % 0 mm 0.00 W/m2
19:19 10.4 °C 9.9 °C 1018.5 hPa SE 16.1 km/h 19.3 km/h 97 % 0 mm 0.00 W/m2
19:24 10.3 °C 9.9 °C 1018.5 hPa SE 12.9 km/h 16.1 km/h 97 % 0 mm 0.00 W/m2
19:29 10.4 °C 9.9 °C 1018.8 hPa SE 8 km/h 16.1 km/h 97 % 0 mm 0.00 W/m2
19:34 10.4 °C 9.9 °C 1018.8 hPa SSE 16.1 km/h 17.7 km/h 97 % 0 mm 0.00 W/m2
19:39 10.4 °C 9.9 °C 1018.8 hPa SSE 8 km/h 12.9 km/h 97 % 0 mm 0.00 W/m2
19:44 10.3 °C 9.9 °C 1019.2 hPa SSE 17.7 km/h 20.9 km/h 97 % 0 mm 0.00 W/m2
19:49 10.4 °C 9.9 °C 1019.2 hPa SSE 9.7 km/h 17.7 km/h 97 % 0 mm 0.00 W/m2
19:54 10.4 °C 9.9 °C 1019.5 hPa SSE 6.4 km/h 12.9 km/h 97 % 0 mm 0.00 W/m2
19:59 10.4 °C 10 °C 1019.5 hPa Calm     97 % 0 mm 0.00 W/m2
20:04 10.4 °C 10 °C 1019.5 hPa Calm     97 % 0 mm 0.00 W/m2
20:09 10.4 °C 10 °C 1019.5 hPa Calm     97 % 0 mm 0.00 W/m2
20:14 10.5 °C 10.1 °C 1019.5 hPa SSE 14.5 km/h 17.7 km/h 97 % 0 mm 0.00 W/m2
20:19 10.5 °C 10.1 °C 1019.5 hPa SSE 9.7 km/h 12.9 km/h 97 % 0 mm 0.00 W/m2
20:24 10.5 °C 10.1 °C 1019.5 hPa Calm   14.5 km/h 97 % 0 mm 0.00 W/m2
20:29 10.5 °C 10.1 °C 1019.5 hPa Calm     97 % 0 mm 0.00 W/m2
20:34 10.5 °C 10.1 °C 1019.5 hPa SSE 11.3 km/h 16.1 km/h 97 % 0 mm 0.00 W/m2
20:39 10.6 °C 10.1 °C 1019.5 hPa SSE 12.9 km/h 17.7 km/h 97 % 0 mm 0.00 W/m2
20:44 10.6 °C 10.1 °C 1019.5 hPa Calm   12.9 km/h 97 % 0 mm 0.00 W/m2
20:49 10.6 °C 10.1 °C 1019.9 hPa Calm     97 % 0 mm 0.00 W/m2
20:54 10.6 °C 10.1 °C 1019.9 hPa Calm     97 % 0 mm 0.00 W/m2
20:59 10.6 °C 10.1 °C 1019.9 hPa Calm     97 % 0 mm 0.00 W/m2
21:04 10.6 °C 10.1 °C 1019.9 hPa Calm     97 % 0 mm 0.00 W/m2
21:09 10.6 °C 10.2 °C 1019.9 hPa Calm     97 % 0 mm 0.00 W/m2
21:14 10.6 °C 10.2 °C 1019.9 hPa Calm   14.5 km/h 97 % 0 mm 0.00 W/m2
21:19 10.7 °C 10.2 °C 1019.9 hPa Calm     97 % 0 mm 0.00 W/m2
21:24 10.7 °C 10.2 °C 1019.9 hPa Calm     97 % 0 mm 0.00 W/m2
21:29 10.7 °C 10.2 °C 1019.9 hPa Calm   14.5 km/h 97 % 0 mm 0.00 W/m2
21:34 10.7 °C 10.2 °C 1019.9 hPa Calm     97 % 0 mm 0.00 W/m2
21:39 10.7 °C 10.2 °C 1020.2 hPa Calm     97 % 0 mm 0.00 W/m2
21:44 10.7 °C 10.3 °C 1020.2 hPa Calm     97 % 0 mm 0.00 W/m2
21:49 10.7 °C 10.3 °C 1020.2 hPa Calm   6.4 km/h 97 % 0 mm 0.00 W/m2
21:54 10.8 °C 10.3 °C 1020.2 hPa Calm     97 % 0 mm 0.00 W/m2
21:59 10.8 °C 10.3 °C 1020.5 hPa Calm     97 % 0 mm 0.00 W/m2
22:04 10.8 °C 10.4 °C 1020.5 hPa South 9.7 km/h 14.5 km/h 97 % 0 mm 0.00 W/m2
22:09 10.8 °C 10.4 °C 1020.5 hPa Calm   1.6 km/h 97 % 0 mm 0.00 W/m2
22:14 10.8 °C 10.4 °C 1020.2 hPa Calm   1.6 km/h 97 % 0 mm 0.00 W/m2
22:19 10.8 °C 10.6 °C 1020.2 hPa Calm   1.6 km/h 98 % 0 mm 0.00 W/m2
22:24 10.9 °C 10.6 °C 1020.2 hPa Calm     98 % 0 mm 0.00 W/m2
22:29 10.9 °C 10.6 °C 1020.2 hPa Calm   16.1 km/h 98 % 0 mm 0.00 W/m2
22:34 10.9 °C 10.6 °C 1020.2 hPa SSE 8 km/h 14.5 km/h 98 % 0 mm 0.00 W/m2
22:39 10.9 °C 10.6 °C 1020.2 hPa Calm   14.5 km/h 98 % 0 mm 0.00 W/m2
22:44 10.9 °C 10.6 °C 1020.2 hPa Calm   14.5 km/h 98 % 0 mm 0.00 W/m2
22:49 10.9 °C 10.6 °C 1020.5 hPa SSE 11.3 km/h 14.5 km/h 98 % 0 mm 0.00 W/m2
22:54 10.9 °C 10.7 °C 1020.5 hPa SSE 6.4 km/h 16.1 km/h 98 % 0 mm 0.00 W/m2
22:59 10.9 °C 10.6 °C 1020.5 hPa Calm     98 % 1.02 mm 0.00 W/m2
23:04 10.9 °C 10.6 °C 1020.2 hPa Calm     98 % 7.37 mm 0.00 W/m2
23:09 10.9 °C 10.6 °C 1020.2 hPa SSE 8 km/h 16.1 km/h 98 % 5.08 mm 0.00 W/m2
23:14 10.9 °C 10.6 °C 1020.2 hPa SSE 8 km/h 19.3 km/h 98 % 1.78 mm 0.00 W/m2
23:19 10.9 °C 10.6 °C 1020.2 hPa SSE 12.9 km/h 16.1 km/h 98 % 1.52 mm 0.00 W/m2
23:24 10.9 °C 10.7 °C 1020.2 hPa South 19.3 km/h 19.3 km/h 98 % 1.52 mm 0.00 W/m2
23:29 10.9 °C 10.7 °C 1020.2 hPa South 11.3 km/h 16.1 km/h 98 % 1.27 mm 0.00 W/m2
23:34 10.9 °C 10.7 °C 1020.2 hPa South 6.4 km/h 19.3 km/h 98 % 0 mm 0.00 W/m2
23:39 11 °C 10.7 °C 1020.2 hPa Calm   16.1 km/h 98 % 0 mm 0.00 W/m2
23:44 11 °C 10.7 °C 1020.2 hPa SSE 3.2 km/h 16.1 km/h 98 % 0 mm 0.00 W/m2
23:49 11 °C 10.7 °C 1020.2 hPa SSE 1.6 km/h 16.1 km/h 98 % 0 mm 0.00 W/m2
23:54 11.1 °C 10.8 °C 1020.2 hPa SSE 16.1 km/h 24.1 km/h 98 % 0 mm 0.00 W/m2
23:59 11.1 °C 10.8 °C 1020.2 hPa SSE 6.4 km/h 16.1 km/h 98 % 0 mm 0.00 W/m2
Juneau County Weather
Compliments of Weather Underground - 4.5 mb
 WU-history PHP script courtesy of   Juneau County Weather.
powered by Cumulus v1.9.3 (1059)
Ambient Weather VWS v14.00
Top Contact Website Map Copyright © 2007 - 2018 Foresthillweather.com Never base important decisions on this or any weather information obtained from the Internet